Terminal Aerodrome Forecast
Issued by NWS

Home | Current Version | Previous Version | Text Only | Print | Product List | Glossary On
Versions: 1 2 3 4 5 6 7 8 9 10 11 12 13 14 15
000
FTUS45 KRIW 021100
TAFCPR
TAF
KCPR 021123Z 0212/0312 23012G18KT P6SM SKC
     FM022000 30012G18KT P6SM SCT060
     FM022300 02014KT P6SM SCT040 BKN060
     FM030200 03011KT P6SM VCSH BKN016
     FM030300 03008KT 3SM -RASN OVC010
     FM030700 36007KT P6SM VCSH OVC015=

USA.gov is the U.S. government's official web portal to all federal, state and local government web resources and services.